createdAt,value
2023-04-26T00:01:35.783Z,4.60
2023-04-26T00:04:03.538Z,4.63
2023-04-26T00:06:30.874Z,4.20
2023-04-26T00:08:57.939Z,4.22
2023-04-26T00:11:25.029Z,4.32
2023-04-26T00:13:51.906Z,4.25
2023-04-26T00:16:20.290Z,3.70
2023-04-26T00:18:47.417Z,3.72
2023-04-26T00:21:15.034Z,4.07
2023-04-26T00:23:42.313Z,4.00
2023-04-26T00:26:09.230Z,3.72
2023-04-26T00:28:36.407Z,3.67
2023-04-26T00:31:03.369Z,3.80
2023-04-26T00:33:30.667Z,4.22
2023-04-26T00:35:57.632Z,4.13
2023-04-26T00:38:24.686Z,4.20
2023-04-26T00:40:51.701Z,4.60
2023-04-26T00:43:18.866Z,3.90
2023-04-26T00:45:46.122Z,4.00
2023-04-26T00:48:13.278Z,3.80
2023-04-26T00:50:40.466Z,3.80
2023-04-26T00:53:08.566Z,3.85
2023-04-26T00:55:36.303Z,4.03
2023-04-26T00:58:03.805Z,4.40
2023-04-26T01:00:30.624Z,4.30
2023-04-26T01:02:57.996Z,4.57
2023-04-26T01:05:25.121Z,4.15
2023-04-26T01:07:52.230Z,4.43
2023-04-26T01:10:19.194Z,4.30
2023-04-26T01:12:46.193Z,5.32
2023-04-26T01:15:13.213Z,4.90
2023-04-26T01:17:40.163Z,4.13
2023-04-26T01:20:09.994Z,4.72
2023-04-26T01:22:37.040Z,4.55
2023-04-26T01:25:04.621Z,5.07
2023-04-26T01:27:33.474Z,4.90
2023-04-26T01:30:00.630Z,4.90
2023-04-26T01:32:27.780Z,5.32
2023-04-26T01:34:58.063Z,5.28
2023-04-26T01:37:25.193Z,4.60
2023-04-26T01:39:52.251Z,4.30
2023-04-26T01:42:20.205Z,4.18
2023-04-26T01:44:47.160Z,4.38
2023-04-26T01:47:14.228Z,4.35
2023-04-26T01:49:41.774Z,4.65
2023-04-26T01:52:08.866Z,4.10
2023-04-26T01:54:36.041Z,4.47
2023-04-26T01:57:03.247Z,4.47
2023-04-26T01:59:30.311Z,4.90
2023-04-26T02:01:59.070Z,3.85
2023-04-26T02:04:26.414Z,4.20
2023-04-26T02:06:53.206Z,4.40
2023-04-26T02:09:20.605Z,4.20
2023-04-26T02:11:47.972Z,4.47
2023-04-26T02:14:18.867Z,4.45
2023-04-26T02:16:46.255Z,4.85
2023-04-26T02:19:13.682Z,4.10
2023-04-26T02:21:58.130Z,3.92
2023-04-26T02:24:25.680Z,4.50
2023-04-26T02:26:54.620Z,5.07
2023-04-26T02:29:29.754Z,5.60
2023-04-26T02:32:07.890Z,4.68
2023-04-26T02:34:36.313Z,4.63
2023-04-26T02:37:03.268Z,5.45
2023-04-26T02:39:30.188Z,5.38
2023-04-26T02:41:57.601Z,4.85
2023-04-26T02:44:25.102Z,5.40
2023-04-26T02:46:52.380Z,5.80
2023-04-26T02:49:19.669Z,5.05
2023-04-26T02:51:47.026Z,5.00
2023-04-26T02:54:14.516Z,4.82
2023-04-26T02:56:41.445Z,5.07
2023-04-26T02:59:08.645Z,5.32
2023-04-26T03:01:35.675Z,5.45
2023-04-26T03:04:03.059Z,5.50
2023-04-26T03:06:30.380Z,6.15
2023-04-26T03:08:57.158Z,5.55
2023-04-26T03:11:24.374Z,6.63
2023-04-26T03:13:51.463Z,6.60
2023-04-26T03:16:23.328Z,6.60
2023-04-26T03:18:50.679Z,5.97
2023-04-26T03:21:18.240Z,6.18
2023-04-26T03:23:45.451Z,6.00
2023-04-26T03:26:13.958Z,6.22
2023-04-26T03:28:41.721Z,6.63
2023-04-26T03:31:08.727Z,7.13
2023-04-26T03:33:35.967Z,7.13
2023-04-26T03:36:02.943Z,6.55
2023-04-26T03:38:30.067Z,6.43
2023-04-26T03:40:57.200Z,6.00
2023-04-26T03:43:24.501Z,5.85
2023-04-26T03:45:52.795Z,7.05
2023-04-26T03:48:19.940Z,5.57
2023-04-26T03:50:47.096Z,5.63
2023-04-26T03:53:14.203Z,5.70
2023-04-26T03:55:42.154Z,6.85
2023-04-26T03:58:09.680Z,6.38
2023-04-26T04:00:41.318Z,5.35
2023-04-26T04:03:08.603Z,6.03
2023-04-26T04:05:35.896Z,6.45
2023-04-26T04:08:03.879Z,7.40
2023-04-26T04:10:31.346Z,6.47
2023-04-26T04:12:59.482Z,6.47
2023-04-26T04:15:26.968Z,6.65
2023-04-26T04:17:54.676Z,6.95
2023-04-26T04:20:21.871Z,6.85
2023-04-26T04:22:49.204Z,6.65
2023-04-26T04:25:16.846Z,5.47
2023-04-26T04:27:45.225Z,7.40
2023-04-26T04:30:12.620Z,7.15
2023-04-26T04:32:42.372Z,6.00
2023-04-26T04:35:09.869Z,6.50
2023-04-26T04:37:36.643Z,6.03
2023-04-26T04:40:04.576Z,6.20
2023-04-26T04:42:36.183Z,6.20
2023-04-26T04:45:07.078Z,6.30
2023-04-26T04:47:37.913Z,6.43
2023-04-26T04:50:06.440Z,6.93
2023-04-26T04:52:33.888Z,6.60
2023-04-26T04:55:01.324Z,6.10
2023-04-26T04:57:29.587Z,6.07
2023-04-26T04:59:56.928Z,7.60
2023-04-26T05:02:25.759Z,6.88
2023-04-26T05:04:52.885Z,7.50
2023-04-26T05:07:19.920Z,5.70
2023-04-26T05:09:52.120Z,5.68
2023-04-26T05:12:19.796Z,4.97
2023-04-26T05:14:47.075Z,4.30
2023-04-26T05:17:14.438Z,3.92
2023-04-26T05:19:41.835Z,4.05
2023-04-26T05:22:09.231Z,4.13
2023-04-26T05:24:39.839Z,3.63
2023-04-26T05:27:09.859Z,3.00
2023-04-26T05:29:53.802Z,3.00
2023-04-26T05:32:29.871Z,2.78
2023-04-26T05:35:13.742Z,3.40
2023-04-26T05:37:40.645Z,3.00
2023-04-26T05:40:09.021Z,2.72
2023-04-26T05:42:37.041Z,2.88
2023-04-26T05:45:04.775Z,2.60
2023-04-26T05:47:32.831Z,2.33
2023-04-26T05:49:59.608Z,2.60
2023-04-26T05:52:26.772Z,2.72
2023-04-26T05:54:53.490Z,3.03
2023-04-26T05:57:20.868Z,2.42
2023-04-26T05:59:54.347Z,3.05
2023-04-26T06:02:22.202Z,2.20
2023-04-26T06:04:52.194Z,2.33
2023-04-26T06:07:25.008Z,2.85
2023-04-26T06:10:03.463Z,2.67
2023-04-26T06:12:35.054Z,2.95
2023-04-26T06:15:10.700Z,2.80
2023-04-26T06:17:40.464Z,2.55
2023-04-26T06:20:07.817Z,3.05
2023-04-26T06:22:36.266Z,2.72
2023-04-26T06:25:08.881Z,3.10
2023-04-26T06:27:40.867Z,2.63
2023-04-26T06:30:11.859Z,3.10
2023-04-26T06:32:48.983Z,2.63
2023-04-26T06:35:21.712Z,2.80
2023-04-26T06:40:19.745Z,3.33
2023-04-26T06:42:49.359Z,2.95
2023-04-26T06:45:34.332Z,3.30
2023-04-26T06:48:02.369Z,4.18
2023-04-26T06:50:31.996Z,4.32
2023-04-26T06:53:01.777Z,4.50
2023-04-26T06:55:28.548Z,2.90
2023-04-26T06:57:55.556Z,3.10
2023-04-26T07:00:23.058Z,2.92
2023-04-26T07:02:49.851Z,3.28
2023-04-26T07:05:24.913Z,2.80
2023-04-26T07:07:58.021Z,4.28
2023-04-26T07:10:26.130Z,3.63
2023-04-26T07:12:53.887Z,3.03
2023-04-26T07:15:29.503Z,4.28
2023-04-26T07:17:58.989Z,2.72
2023-04-26T07:20:30.200Z,2.83
2023-04-26T07:22:57.939Z,3.17
2023-04-26T07:25:26.546Z,3.20
2023-04-26T07:27:56.098Z,2.90
2023-04-26T07:30:22.919Z,4.82
2023-04-26T07:32:56.564Z,3.65
2023-04-26T07:35:25.108Z,3.88
2023-04-26T07:37:54.855Z,3.92
2023-04-26T07:40:30.130Z,4.50
2023-04-26T07:43:05.758Z,3.88
2023-04-26T07:45:33.155Z,3.80
2023-04-26T07:48:00.240Z,3.92
2023-04-26T07:50:29.419Z,4.25
2023-04-26T07:52:56.098Z,4.07
2023-04-26T07:55:22.916Z,4.25
2023-04-26T07:57:49.881Z,3.88
2023-04-26T08:00:22.566Z,4.15
2023-04-26T08:02:54.304Z,4.20
2023-04-26T08:05:30.306Z,3.63
2023-04-26T08:08:01.240Z,3.47
2023-04-26T08:10:34.098Z,3.63
2023-04-26T08:13:09.720Z,3.65
2023-04-26T08:15:46.624Z,3.15
2023-04-26T08:18:16.444Z,3.42
2023-04-26T08:20:52.910Z,3.58
2023-04-26T08:23:20.638Z,3.17
2023-04-26T08:25:55.008Z,4.05
2023-04-26T08:28:32.748Z,3.60
2023-04-26T08:31:15.763Z,3.90
2023-04-26T08:33:44.333Z,4.00
2023-04-26T08:36:14.036Z,4.32
2023-04-26T08:38:43.283Z,3.53
2023-04-26T08:41:15.481Z,3.38
2023-04-26T08:43:45.140Z,3.50
2023-04-26T08:46:18.612Z,3.30
2023-04-26T08:48:49.929Z,3.15
2023-04-26T08:51:21.600Z,3.70
2023-04-26T08:53:55.874Z,3.08
2023-04-26T08:56:22.997Z,3.28
2023-04-26T08:58:54.536Z,3.72
2023-04-26T09:01:24.906Z,2.78
2023-04-26T09:04:00.163Z,2.92
2023-04-26T09:06:28.237Z,2.92
2023-04-26T09:15:23.600Z,3.88
2023-04-26T09:22:40.489Z,2.85
2023-04-26T09:25:09.180Z,3.00
2023-04-26T09:27:41.431Z,3.08
2023-04-26T09:30:18.425Z,2.75
2023-04-26T09:33:07.520Z,3.05
2023-04-26T09:35:40.523Z,3.17
2023-04-26T09:38:19.254Z,2.60
2023-04-26T09:40:49.143Z,2.80
2023-04-26T09:43:22.739Z,3.00
2023-04-26T09:45:55.849Z,2.67
2023-04-26T09:48:35.513Z,2.80
2023-04-26T09:51:33.341Z,3.00
2023-04-26T09:54:46.126Z,3.58
2023-04-26T09:57:14.961Z,3.33
2023-04-26T09:59:54.359Z,2.97
2023-04-26T10:02:23.986Z,2.65
2023-04-26T10:05:07.644Z,3.30
2023-04-26T10:08:06.710Z,3.00
2023-04-26T10:10:33.930Z,2.70
2023-04-26T10:13:10.562Z,2.40
2023-04-26T10:15:49.022Z,2.28
2023-04-26T10:51:53.434Z,2.13
2023-04-26T10:55:27.786Z,2.60
2023-04-26T11:05:48.506Z,2.58
2023-04-26T11:21:42.210Z,2.70
2023-04-26T11:24:47.378Z,2.45
2023-04-26T11:40:04.520Z,2.42
2023-04-26T11:43:01.752Z,2.30
2023-04-26T11:45:32.390Z,2.38
2023-04-26T11:48:10.953Z,2.08
2023-04-26T11:50:39.007Z,2.10
2023-04-26T11:53:11.355Z,2.08
2023-04-26T11:55:52.508Z,1.90
2023-04-26T11:58:39.690Z,2.15
2023-04-26T12:01:10.158Z,1.92
2023-04-26T12:03:43.332Z,2.30
2023-04-26T12:12:17.134Z,2.00
2023-04-26T12:23:43.367Z,2.05
2023-04-26T12:26:12.217Z,1.60
2023-04-26T12:28:44.981Z,2.10
2023-04-26T12:31:14.709Z,2.03
2023-04-26T12:33:42.202Z,1.67
2023-04-26T12:36:12.928Z,2.00
2023-04-26T12:38:40.652Z,1.90
2023-04-26T12:41:25.648Z,1.90
2023-04-26T12:43:52.886Z,1.70
2023-04-26T12:46:22.201Z,1.83
2023-04-26T12:48:56.167Z,1.90
2023-04-26T12:51:23.940Z,1.77
2023-04-26T12:55:10.160Z,2.33
2023-04-26T13:18:21.289Z,1.70
2023-04-26T13:20:48.384Z,1.42
2023-04-26T13:23:20.556Z,1.63
2023-04-26T13:25:49.529Z,1.67
2023-04-26T13:28:22.977Z,2.63
2023-04-26T13:30:53.187Z,1.98
2023-04-26T13:34:06.768Z,1.85
2023-04-26T13:36:39.702Z,1.70
2023-04-26T13:39:07.385Z,1.80
2023-04-26T13:41:35.153Z,2.13
2023-04-26T13:44:13.574Z,1.77
2023-04-26T13:55:18.544Z,2.40
2023-04-26T13:57:51.472Z,2.08
2023-04-26T14:18:37.276Z,4.28
2023-04-26T14:21:28.246Z,2.38
2023-04-26T14:26:48.767Z,2.28
2023-04-26T14:29:16.423Z,2.25
2023-04-26T14:31:51.969Z,2.10
2023-04-26T14:34:39.318Z,2.22
2023-04-26T14:37:18.282Z,2.28
2023-04-26T14:39:48.392Z,2.50
2023-04-26T14:42:41.103Z,2.22
2023-04-26T14:45:22.177Z,2.40
2023-04-26T14:53:53.906Z,2.45
2023-04-26T14:59:34.787Z,2.72
2023-04-26T15:02:11.923Z,2.53
2023-04-26T15:04:45.963Z,2.70
2023-04-26T15:07:28.754Z,2.10
2023-04-26T15:10:06.298Z,2.45
2023-04-26T15:12:53.544Z,2.88
2023-04-26T15:15:24.486Z,3.30
2023-04-26T15:21:41.389Z,3.28
2023-04-26T15:24:39.344Z,2.95
2023-04-26T15:27:41.948Z,3.97
2023-04-26T15:30:11.966Z,4.10
2023-04-26T15:32:40.524Z,4.03
2023-04-26T15:35:22.667Z,3.88
2023-04-26T15:37:56.600Z,3.53
2023-04-26T15:40:35.293Z,3.42
2023-04-26T15:43:30.625Z,4.07
2023-04-26T15:46:04.515Z,4.47
2023-04-26T15:48:35.830Z,4.07
2023-04-26T15:51:08.111Z,4.22
2023-04-26T15:53:36.441Z,3.70
2023-04-26T15:56:21.429Z,3.60
2023-04-26T15:58:53.965Z,3.63
2023-04-26T16:01:59.016Z,4.43
2023-04-26T16:04:34.279Z,4.57
2023-04-26T16:07:17.489Z,3.90
2023-04-26T16:09:50.801Z,5.45
2023-04-26T16:12:47.411Z,5.45
2023-04-26T16:16:39.677Z,4.22
2023-04-26T16:19:15.313Z,3.90
2023-04-26T16:22:11.240Z,4.47
2023-04-26T16:24:44.591Z,4.47
2023-04-26T16:27:23.592Z,4.57
2023-04-26T16:34:29.278Z,4.43
2023-04-26T16:37:05.514Z,5.45
2023-04-26T16:40:24.439Z,5.22
2023-04-26T16:42:58.928Z,4.82
2023-04-26T16:45:42.846Z,5.35
2023-04-26T16:49:28.020Z,6.32
2023-04-26T16:56:23.207Z,6.45
2023-04-26T16:59:57.805Z,7.00
2023-04-26T17:08:07.028Z,7.72
2023-04-26T17:11:06.898Z,6.18
2023-04-26T17:14:07.447Z,5.88
2023-04-26T17:16:38.339Z,5.82
2023-04-26T17:23:28.367Z,7.05
2023-04-26T17:38:10.632Z,6.85
2023-04-26T17:40:40.784Z,7.00
2023-04-26T17:43:14.902Z,7.20
2023-04-26T17:45:47.400Z,6.50
2023-04-26T17:48:48.668Z,7.00
2023-04-26T17:51:34.473Z,7.90
2023-04-26T17:58:02.190Z,6.47
2023-04-26T18:00:49.775Z,6.82
2023-04-26T18:03:30.486Z,7.95
2023-04-26T18:52:15.666Z,6.80
2023-04-26T18:55:29.504Z,7.20
2023-04-26T19:02:54.997Z,7.32
2023-04-26T19:16:27.533Z,7.18
2023-04-26T19:44:42.596Z,10.63
2023-04-26T19:47:43.553Z,12.68
2023-04-26T19:50:11.189Z,11.57
2023-04-26T19:52:45.586Z,10.25
2023-04-26T19:55:50.888Z,10.60
2023-04-26T19:59:03.312Z,10.20
2023-04-26T20:01:30.761Z,11.00
2023-04-26T20:03:57.893Z,9.38
2023-04-26T20:06:28.070Z,8.95
2023-04-26T20:09:41.434Z,10.00
2023-04-26T20:12:51.910Z,9.38
2023-04-26T20:15:21.110Z,9.45
2023-04-26T20:18:15.863Z,10.90
2023-04-26T20:20:42.416Z,13.93
2023-04-26T20:23:09.485Z,14.07
2023-04-26T20:25:36.751Z,14.55
2023-04-26T20:28:04.365Z,11.73
2023-04-26T20:30:33.905Z,12.60
2023-04-26T20:33:04.393Z,14.63
2023-04-26T20:35:31.442Z,12.68
2023-04-26T20:37:58.702Z,13.50
2023-04-26T20:40:26.439Z,13.52
2023-04-26T20:42:53.853Z,13.57
2023-04-26T20:45:20.991Z,14.65
2023-04-26T20:47:48.436Z,12.82
2023-04-26T20:50:15.736Z,14.38
2023-04-26T20:52:42.655Z,15.38
2023-04-26T20:55:09.982Z,15.07
2023-04-26T20:57:38.441Z,14.38
2023-04-26T21:00:06.763Z,15.60
2023-04-26T21:02:34.125Z,14.05
2023-04-26T21:05:01.255Z,13.20
2023-04-26T21:07:28.489Z,12.60
2023-04-26T21:09:55.770Z,12.55
2023-04-26T21:12:23.355Z,12.63
2023-04-26T21:14:50.708Z,13.10
2023-04-26T21:17:18.273Z,13.75
2023-04-26T21:19:45.616Z,13.23
2023-04-26T21:22:12.869Z,14.32
2023-04-26T21:24:40.086Z,13.85
2023-04-26T21:27:07.397Z,13.70
2023-04-26T21:29:34.476Z,16.48
2023-04-26T21:32:01.796Z,16.85
2023-04-26T21:34:28.934Z,17.40
2023-04-26T21:36:55.932Z,18.92
2023-04-26T21:39:23.037Z,20.08
2023-04-26T21:41:50.497Z,17.13
2023-04-26T21:44:17.750Z,16.92
2023-04-26T21:46:45.069Z,18.23
2023-04-26T21:49:12.405Z,19.15
2023-04-26T21:51:39.297Z,17.88
2023-04-26T21:54:06.322Z,16.42
2023-04-26T21:56:34.017Z,17.15
2023-04-26T21:59:02.580Z,16.17
2023-04-26T22:01:30.136Z,17.25
2023-04-26T22:03:57.600Z,15.70
2023-04-26T22:06:24.798Z,15.00
2023-04-26T22:08:51.909Z,15.13
2023-04-26T22:11:19.721Z,17.27
2023-04-26T22:13:47.049Z,17.58
2023-04-26T22:16:14.128Z,17.38
2023-04-26T22:18:41.512Z,17.95
2023-04-26T22:21:08.648Z,19.38
2023-04-26T22:23:35.945Z,20.55
2023-04-26T22:26:05.445Z,15.88
2023-04-26T22:28:32.449Z,17.25
2023-04-26T22:30:59.528Z,14.77
2023-04-26T22:33:27.010Z,16.85
2023-04-26T22:35:57.768Z,17.00
2023-04-26T22:38:25.323Z,16.73
2023-04-26T22:40:54.775Z,16.50
2023-04-26T22:43:22.572Z,17.02
2023-04-26T22:45:49.943Z,17.08
2023-04-26T22:48:17.809Z,16.48
2023-04-26T22:50:44.801Z,15.90
2023-04-26T22:53:12.115Z,17.10
2023-04-26T22:55:39.178Z,17.40
2023-04-26T22:58:06.575Z,17.80
2023-04-26T23:00:33.719Z,17.35
2023-04-26T23:03:00.895Z,18.05
2023-04-26T23:05:28.025Z,16.95
2023-04-26T23:07:55.295Z,18.35
2023-04-26T23:10:22.720Z,17.58
2023-04-26T23:12:50.931Z,16.88
2023-04-26T23:15:18.779Z,17.02
2023-04-26T23:17:45.967Z,18.05
2023-04-26T23:20:13.156Z,14.38
2023-04-26T23:22:41.598Z,14.30
2023-04-26T23:25:09.374Z,13.32
2023-04-26T23:27:36.963Z,13.90
2023-04-26T23:30:04.751Z,13.70
2023-04-26T23:32:32.183Z,13.57
2023-04-26T23:34:59.441Z,13.02
2023-04-26T23:37:26.430Z,13.63
2023-04-26T23:39:53.588Z,12.88
2023-04-26T23:42:21.020Z,12.93
2023-04-26T23:44:48.149Z,12.57
2023-04-26T23:47:15.514Z,12.38
2023-04-26T23:49:42.384Z,11.18
2023-04-26T23:52:12.575Z,10.57
2023-04-26T23:54:39.705Z,11.90
2023-04-26T23:57:07.228Z,11.43
2023-04-26T23:59:34.125Z,10.38
